Time;durP1;ratioP1;P1;durP2;ratioP2;P2;SDS_P1;SDS_P2;PMS_P1;PMS_P2;Temp;Humidity;BMP_temperature;BMP_pressure;BME280_temperature;BME280_humidity;BME280_pressure;Samples;Min_cycle;Max_cycle;Signal;HPM_P1;HPM_P2
2022/10/22 00:00:43;;;;;;;1.10;1.10;;;20.30;63.80;;;;;;5111882;27;44020;-63
2022/10/22 00:03:10;;;;;;;0.93;0.80;;;20.30;63.80;;;;;;5111523;27;43442;-62
2022/10/22 00:05:38;;;;;;;1.00;1.00;;;20.20;63.70;;;;;;5108955;27;43636;-61
2022/10/22 00:08:05;;;;;;;0.90;0.90;;;20.20;63.80;;;;;;5109524;27;44107;-61
2022/10/22 00:10:32;;;;;;;0.98;0.98;;;20.30;63.80;;;;;;5109265;27;43970;-61
2022/10/22 00:13:00;;;;;;;0.98;0.98;;;20.30;63.80;;;;;;5110731;27;43508;-61
2022/10/22 00:15:27;;;;;;;0.93;0.93;;;20.30;63.80;;;;;;5112517;27;43560;-61
2022/10/22 00:17:55;;;;;;;1.30;1.20;;;20.20;63.70;;;;;;5119722;27;44926;-61
2022/10/22 00:20:22;;;;;;;1.00;0.80;;;20.30;63.80;;;;;;5108663;27;44001;-61
2022/10/22 00:22:49;;;;;;;1.20;1.20;;;20.20;63.70;;;;;;5110626;27;43464;-61
2022/10/22 00:25:18;;;;;;;1.10;1.10;;;20.20;63.80;;;;;;5110589;27;43555;-61
2022/10/22 00:27:45;;;;;;;1.10;1.10;;;20.20;63.70;;;;;;5109881;27;43789;-61
2022/10/22 00:30:13;;;;;;;1.00;1.00;;;20.20;63.80;;;;;;5109260;27;43497;-61
2022/10/22 00:32:40;;;;;;;1.08;1.08;;;20.20;63.80;;;;;;5113211;27;43473;-61
2022/10/22 00:35:08;;;;;;;1.13;1.10;;;20.20;63.80;;;;;;5110302;27;43577;-61
2022/10/22 00:37:36;;;;;;;1.20;1.10;;;20.20;63.80;;;;;;5108360;27;44978;-61
2022/10/22 00:40:04;;;;;;;1.10;1.10;;;20.20;63.80;;;;;;5108609;27;43473;-61
2022/10/22 00:42:31;;;;;;;0.80;0.80;;;20.20;63.80;;;;;;5117650;27;43353;-61
2022/10/22 00:45:07;;;;;;;1.20;1.10;;;20.20;63.80;;;;;;5110304;27;43532;-61
2022/10/22 00:47:42;;;;;;;1.30;1.20;;;20.20;63.80;;;;;;5107815;27;44069;-61
2022/10/22 00:50:20;;;;;;;1.08;1.08;;;20.20;63.80;;;;;;5108186;27;43431;-62
2022/10/22 00:52:49;;;;;;;1.17;1.08;;;20.20;63.80;;;;;;5108988;27;43432;-61
2022/10/22 00:55:18;;;;;;;1.23;1.13;;;20.10;63.80;;;;;;5107651;27;43599;-62
2022/10/22 00:57:46;;;;;;;1.10;1.10;;;20.20;63.90;;;;;;5108177;27;44677;-61
2022/10/22 01:00:14;;;;;;;1.00;1.00;;;20.20;63.90;;;;;;5110510;27;43533;-61
2022/10/22 01:02:42;;;;;;;0.88;0.88;;;20.10;63.80;;;;;;5109107;27;43466;-61
2022/10/22 01:05:10;;;;;;;1.30;1.20;;;20.10;63.80;;;;;;5108661;27;43477;-61
2022/10/22 01:07:41;;;;;;;0.98;0.98;;;20.10;63.80;;;;;;5107519;27;44781;-62
2022/10/22 01:10:26;;;;;;;0.90;0.90;;;20.10;63.80;;;;;;5111143;27;43952;-61
2022/10/22 01:13:16;;;;;;;1.00;1.00;;;20.10;63.90;;;;;;5116266;27;43402;-61
2022/10/22 01:15:56;;;;;;;1.53;1.10;;;20.10;63.80;;;;;;5113871;27;43661;-61
2022/10/22 01:18:36;;;;;;;0.90;0.90;;;20.10;63.90;;;;;;5108434;27;44059;-61
2022/10/22 01:21:14;;;;;;;0.90;0.90;;;20.10;63.90;;;;;;5108313;27;43976;-61
2022/10/22 01:23:50;;;;;;;1.27;1.17;;;20.10;63.90;;;;;;5120264;27;43407;-62
2022/10/22 01:26:24;;;;;;;0.90;0.90;;;20.10;63.80;;;;;;5121455;27;43528;-61
2022/10/22 01:29:09;;;;;;;0.73;0.73;;;20.10;63.90;;;;;;5107624;27;44102;-62
2022/10/22 01:31:45;;;;;;;1.85;0.90;;;20.10;64.00;;;;;;5090483;27;43345;-61
2022/10/22 01:34:16;;;;;;;0.98;0.98;;;20.10;63.90;;;;;;5109318;27;43372;-62
2022/10/22 01:36:45;;;;;;;1.13;1.08;;;20.10;63.90;;;;;;5107338;27;43430;-61
2022/10/22 01:39:14;;;;;;;1.00;1.00;;;20.10;63.90;;;;;;5107966;27;43798;-61
2022/10/22 01:41:46;;;;;;;0.98;0.98;;;20.10;63.90;;;;;;5112717;27;43474;-61
2022/10/22 01:44:30;;;;;;;0.80;0.80;;;20.10;63.90;;;;;;5107831;27;43393;-61
2022/10/22 01:47:14;;;;;;;1.08;1.08;;;20.10;63.90;;;;;;5107238;27;43484;-61
2022/10/22 01:49:59;;;;;;;0.85;0.85;;;20.00;63.80;;;;;;5107911;27;44955;-61
2022/10/22 01:52:37;;;;;;;1.00;1.00;;;20.10;64.00;;;;;;5107300;27;43494;-61
2022/10/22 01:55:07;;;;;;;0.80;0.80;;;20.00;63.90;;;;;;5107865;27;43436;-61
2022/10/22 01:57:43;;;;;;;0.90;0.90;;;20.00;63.90;;;;;;5107342;27;43537;-61
2022/10/22 02:00:13;;;;;;;0.80;0.80;;;20.00;63.90;;;;;;5114495;27;44894;-61
2022/10/22 02:02:48;;;;;;;1.23;0.98;;;20.00;63.90;;;;;;5107460;27;43979;-61
2022/10/22 02:05:26;;;;;;;1.02;0.98;;;20.00;63.90;;;;;;5110089;27;43494;-61
2022/10/22 02:08:23;;;;;;;1.25;1.15;;;20.00;63.90;;;;;;5115943;27;43505;-61
2022/10/22 02:10:52;;;;;;;0.93;0.93;;;20.00;64.00;;;;;;5103135;27;44804;-61
2022/10/22 02:13:33;;;;;;;0.95;0.95;;;20.00;63.90;;;;;;5109643;27;43824;-61
2022/10/22 02:16:05;;;;;;;0.77;0.77;;;20.00;63.90;;;;;;5107380;27;43465;-61
2022/10/22 02:18:36;;;;;;;0.85;0.85;;;20.00;63.90;;;;;;5106677;27;43570;-61
2022/10/22 02:21:06;;;;;;;0.90;0.90;;;20.00;64.00;;;;;;5120318;27;44944;-62
2022/10/22 02:23:39;;;;;;;0.82;0.82;;;20.00;63.90;;;;;;5119992;27;43926;-61
2022/10/22 02:26:15;;;;;;;0.98;0.98;;;20.00;63.90;;;;;;5114349;27;43489;-61
2022/10/22 02:29:05;;;;;;;1.00;1.00;;;20.00;63.90;;;;;;5108884;27;43454;-61
2022/10/22 02:31:37;;;;;;;0.90;0.90;;;20.00;63.90;;;;;;5114662;27;44986;-61
2022/10/22 02:34:13;;;;;;;0.98;0.98;;;20.00;64.00;;;;;;5106494;27;43991;-61
2022/10/22 02:36:42;;;;;;;0.73;0.73;;;20.00;64.00;;;;;;5109557;27;43437;-61
2022/10/22 02:39:16;;;;;;;0.88;0.88;;;20.00;64.00;;;;;;5097480;27;43469;-61
2022/10/22 02:41:44;;;;;;;0.80;0.80;;;20.00;63.90;;;;;;5109372;27;45307;-61
2022/10/22 02:44:11;;;;;;;0.90;0.90;;;20.00;63.90;;;;;;5111107;27;43507;-61
2022/10/22 02:46:41;;;;;;;1.00;1.00;;;20.00;64.00;;;;;;5109799;27;43398;-62
2022/10/22 02:49:08;;;;;;;1.00;1.00;;;19.90;63.90;;;;;;5107054;27;43523;-61
2022/10/22 02:51:36;;;;;;;1.20;1.00;;;19.90;63.90;;;;;;5106161;27;44307;-61
2022/10/22 02:54:03;;;;;;;1.13;1.00;;;19.90;63.90;;;;;;5106395;27;43502;-61
2022/10/22 02:56:31;;;;;;;0.77;0.77;;;19.90;63.90;;;;;;5104851;27;43514;-61
2022/10/22 02:58:58;;;;;;;1.25;0.80;;;19.90;63.90;;;;;;5107447;27;43398;-61
2022/10/22 03:01:26;;;;;;;0.90;0.90;;;19.90;63.90;;;;;;5109823;27;43868;-61
2022/10/22 03:03:53;;;;;;;0.90;0.90;;;19.90;63.90;;;;;;5120176;27;43441;-61
2022/10/22 03:06:21;;;;;;;0.82;0.82;;;19.90;63.90;;;;;;5110430;27;43457;-61
2022/10/22 03:08:48;;;;;;;0.98;0.98;;;19.90;63.90;;;;;;5110039;27;43499;-61
2022/10/22 03:11:16;;;;;;;0.85;0.85;;;19.90;63.90;;;;;;5109192;27;46261;-61
2022/10/22 03:13:43;;;;;;;0.88;0.88;;;19.90;63.90;;;;;;5109825;27;44037;-61
2022/10/22 03:16:10;;;;;;;0.80;0.80;;;19.90;63.90;;;;;;5112028;27;43430;-61
2022/10/22 03:18:38;;;;;;;0.70;0.70;;;19.90;64.00;;;;;;5109877;27;43529;-61
2022/10/22 03:21:12;;;;;;;0.90;0.90;;;19.90;63.90;;;;;;5110263;27;44952;-61
2022/10/22 03:23:42;;;;;;;0.60;0.60;;;19.90;63.90;;;;;;5122285;27;43384;-61
2022/10/22 03:26:12;;;;;;;0.70;0.70;;;19.90;63.90;;;;;;5123619;27;43428;-61
2022/10/22 03:28:40;;;;;;;0.80;0.80;;;19.90;63.80;;;;;;5109855;27;43506;-61
2022/10/22 03:31:08;;;;;;;0.80;0.80;;;19.90;63.90;;;;;;5116923;27;44047;-61
2022/10/22 03:33:35;;;;;;;0.70;0.70;;;19.90;64.00;;;;;;5113285;27;43418;-61
2022/10/22 03:36:03;;;;;;;0.80;0.80;;;19.90;64.00;;;;;;5111543;27;43476;-61
2022/10/22 03:38:30;;;;;;;0.70;0.70;;;19.90;64.00;;;;;;5109113;27;43446;-61
2022/10/22 03:40:58;;;;;;;0.82;0.82;;;19.90;64.00;;;;;;5109872;27;44065;-61
2022/10/22 03:43:25;;;;;;;0.70;0.70;;;19.80;63.90;;;;;;5123196;27;43467;-61
2022/10/22 03:45:53;;;;;;;0.85;0.85;;;19.80;63.90;;;;;;5111854;27;43428;-61
2022/10/22 03:48:20;;;;;;;0.70;0.70;;;19.80;63.90;;;;;;5091567;27;43610;-61
2022/10/22 03:50:48;;;;;;;0.68;0.68;;;19.80;63.90;;;;;;5109371;27;43998;-61
2022/10/22 03:53:16;;;;;;;0.85;0.85;;;19.80;63.90;;;;;;5111092;27;44104;-61
2022/10/22 03:55:44;;;;;;;0.90;0.90;;;19.80;63.90;;;;;;5111138;27;43537;-61
2022/10/22 03:58:11;;;;;;;0.90;0.90;;;19.80;63.90;;;;;;5112838;27;43541;-61
2022/10/22 04:00:39;;;;;;;0.90;0.90;;;19.80;63.90;;;;;;5112261;27;43777;-61
2022/10/22 04:03:06;;;;;;;0.60;0.60;;;19.80;63.90;;;;;;5110613;27;43492;-61
2022/10/22 04:05:34;;;;;;;0.85;0.85;;;19.80;63.90;;;;;;5108568;27;43447;-61
2022/10/22 04:08:01;;;;;;;0.70;0.70;;;19.80;63.90;;;;;;5109644;27;43541;-61
2022/10/22 04:10:29;;;;;;;0.68;0.68;;;19.80;64.00;;;;;;5108298;27;44056;-61
2022/10/22 04:12:56;;;;;;;1.17;1.08;;;19.80;63.90;;;;;;5108415;27;43447;-61
2022/10/22 04:15:26;;;;;;;0.80;0.80;;;19.80;64.00;;;;;;5112719;27;43423;-61
2022/10/22 04:17:55;;;;;;;0.90;0.90;;;19.80;63.90;;;;;;5119147;27;43529;-61
2022/10/22 04:20:22;;;;;;;0.90;0.90;;;19.80;63.90;;;;;;5108942;27;43887;-61
2022/10/22 04:22:50;;;;;;;0.80;0.80;;;19.80;64.00;;;;;;5110898;27;43479;-61
2022/10/22 04:25:17;;;;;;;0.90;0.90;;;19.80;63.90;;;;;;5109661;27;43483;-61
2022/10/22 04:27:44;;;;;;;1.00;0.90;;;19.80;64.00;;;;;;5109030;27;43584;-61
2022/10/22 04:30:12;;;;;;;0.80;0.80;;;19.80;63.90;;;;;;5109334;27;44597;-61
2022/10/22 04:32:40;;;;;;;0.70;0.70;;;19.80;63.90;;;;;;5110475;27;43440;-61
2022/10/22 04:35:07;;;;;;;0.98;0.90;;;19.80;64.00;;;;;;5110100;27;43697;-61
2022/10/22 04:37:35;;;;;;;1.23;1.00;;;19.80;63.90;;;;;;5108604;27;43513;-61
2022/10/22 04:40:03;;;;;;;0.70;0.70;;;19.80;64.00;;;;;;5108744;27;43627;-61
2022/10/22 04:42:30;;;;;;;0.85;0.85;;;19.70;63.90;;;;;;5117820;27;44153;-61
2022/10/22 04:44:58;;;;;;;0.68;0.68;;;19.70;63.90;;;;;;5110017;27;43555;-61
2022/10/22 04:47:25;;;;;;;1.40;1.08;;;19.70;63.90;;;;;;5107995;27;43541;-61
2022/10/22 04:49:53;;;;;;;0.80;0.80;;;19.70;63.90;;;;;;5109047;27;44069;-61
2022/10/22 04:52:20;;;;;;;1.00;0.88;;;19.70;63.90;;;;;;5110673;27;44266;-61
2022/10/22 04:54:47;;;;;;;1.00;0.90;;;19.80;64.00;;;;;;5108980;27;43518;-61
2022/10/22 04:57:15;;;;;;;0.70;0.70;;;19.70;63.90;;;;;;5108986;27;43533;-61
2022/10/22 04:59:42;;;;;;;0.80;0.80;;;19.70;63.90;;;;;;5109411;27;44850;-61
2022/10/22 05:02:09;;;;;;;1.27;0.70;;;19.70;64.00;;;;;;5108400;27;43987;-61
2022/10/22 05:04:37;;;;;;;0.93;0.93;;;19.70;63.90;;;;;;5114555;27;43508;-61
2022/10/22 05:07:04;;;;;;;0.80;0.80;;;19.70;63.90;;;;;;5112834;27;43517;-61
2022/10/22 05:09:32;;;;;;;0.75;0.75;;;19.70;63.90;;;;;;5121032;27;45045;-61
2022/10/22 05:11:59;;;;;;;0.82;0.82;;;19.70;63.90;;;;;;5111711;27;43460;-62
2022/10/22 05:14:26;;;;;;;1.00;1.00;;;19.70;63.90;;;;;;5110717;27;43528;-61
2022/10/22 05:16:54;;;;;;;0.90;0.90;;;19.70;63.90;;;;;;5111193;27;43604;-61
2022/10/22 05:19:29;;;;;;;0.80;0.80;;;19.70;63.90;;;;;;5122018;27;43789;-62
2022/10/22 05:21:59;;;;;;;0.88;0.88;;;19.70;63.90;;;;;;5110522;27;43474;-61
2022/10/22 05:24:28;;;;;;;0.90;0.90;;;19.70;64.00;;;;;;5106978;27;43462;-61
2022/10/22 05:26:57;;;;;;;1.50;0.57;;;19.70;63.90;;;;;;5117107;27;43463;-61
2022/10/22 05:29:26;;;;;;;0.70;0.70;;;19.70;63.90;;;;;;5122517;27;43955;-60
2022/10/22 05:31:53;;;;;;;1.00;0.77;;;19.70;63.90;;;;;;5109429;27;43970;-61
2022/10/22 05:34:21;;;;;;;0.90;0.90;;;19.70;63.90;;;;;;5110860;27;43445;-61
2022/10/22 05:36:48;;;;;;;0.80;0.80;;;19.70;63.90;;;;;;5117989;27;43589;-61
2022/10/22 05:39:16;;;;;;;1.05;1.00;;;19.70;63.90;;;;;;5123154;27;44213;-61
2022/10/22 05:41:43;;;;;;;1.10;0.90;;;19.70;63.90;;;;;;5109088;27;43840;-60
2022/10/22 05:44:12;;;;;;;0.80;0.80;;;19.70;63.90;;;;;;5111389;27;43456;-61
2022/10/22 05:46:42;;;;;;;1.02;1.02;;;19.70;63.90;;;;;;5120280;27;43572;-61
2022/10/22 05:49:12;;;;;;;0.80;0.80;;;19.60;63.90;;;;;;5111344;27;44046;-61
2022/10/22 05:51:40;;;;;;;0.88;0.88;;;19.70;63.90;;;;;;5109140;27;43386;-61
2022/10/22 05:54:07;;;;;;;0.93;0.93;;;19.60;63.80;;;;;;5112359;27;43468;-61
2022/10/22 05:56:36;;;;;;;1.10;1.00;;;19.60;63.90;;;;;;5121162;27;43617;-61
2022/10/22 05:59:03;;;;;;;1.00;1.00;;;19.60;63.90;;;;;;5099806;27;44770;-61
2022/10/22 06:01:36;;;;;;;1.00;1.00;;;19.70;64.10;;;;;;5091724;27;43508;-61
2022/10/22 06:04:06;;;;;;;1.05;1.05;;;19.70;64.10;;;;;;5111731;27;43488;-61
2022/10/22 06:06:47;;;;;;;1.00;1.00;;;19.60;63.90;;;;;;5116444;27;43561;-61
2022/10/22 06:09:22;;;;;;;1.25;1.20;;;19.70;64.10;;;;;;5118325;27;44932;-61
2022/10/22 06:11:50;;;;;;;1.08;0.98;;;19.60;64.00;;;;;;5113702;27;43986;-61
2022/10/22 06:14:19;;;;;;;0.98;0.93;;;19.60;64.10;;;;;;5111588;27;43470;-61
2022/10/22 06:16:47;;;;;;;0.90;0.90;;;19.70;64.10;;;;;;5122442;27;43615;-61
2022/10/22 06:19:17;;;;;;;1.13;1.00;;;19.70;64.20;;;;;;5119861;27;43800;-61
2022/10/22 06:21:45;;;;;;;0.98;0.95;;;19.60;64.10;;;;;;5114305;27;43723;-61
2022/10/22 06:24:13;;;;;;;1.05;1.00;;;19.60;64.10;;;;;;5113241;27;43433;-61
2022/10/22 06:26:40;;;;;;;0.80;0.80;;;19.60;64.10;;;;;;5118732;27;44020;-61
2022/10/22 06:29:08;;;;;;;0.70;0.70;;;19.60;64.10;;;;;;5120777;27;44809;-61
2022/10/22 06:31:36;;;;;;;1.08;0.98;;;19.60;64.10;;;;;;5107042;27;44009;-61
2022/10/22 06:34:05;;;;;;;0.80;0.80;;;19.60;64.10;;;;;;5114811;27;43449;-61
2022/10/22 06:36:33;;;;;;;1.33;0.85;;;19.60;64.20;;;;;;5120225;27;43568;-61
2022/10/22 06:39:01;;;;;;;0.82;0.82;;;19.60;64.10;;;;;;5121069;27;45061;-61
2022/10/22 06:41:29;;;;;;;1.75;1.08;;;19.70;64.20;;;;;;5079948;27;43406;-61
2022/10/22 06:43:57;;;;;;;2.25;0.82;;;19.60;64.10;;;;;;5115085;27;43465;-60
2022/10/22 06:46:25;;;;;;;1.65;1.08;;;19.60;64.10;;;;;;5120440;27;43569;-61
2022/10/22 06:48:56;;;;;;;0.90;0.90;;;19.60;64.20;;;;;;5107654;27;44763;-61
2022/10/22 06:51:24;;;;;;;0.77;0.77;;;19.60;64.10;;;;;;5108454;27;43784;-61
2022/10/22 06:53:54;;;;;;;0.80;0.80;;;19.60;64.80;;;;;;5112976;27;43420;-61
2022/10/22 06:56:23;;;;;;;0.77;0.73;;;19.60;64.10;;;;;;5113113;27;43568;-61
2022/10/22 06:58:53;;;;;;;0.77;0.77;;;19.70;64.10;;;;;;5104312;27;44913;-61
2022/10/22 07:01:23;;;;;;;1.00;0.90;;;19.60;64.00;;;;;;5110529;27;44115;-61
2022/10/22 07:03:51;;;;;;;0.77;0.77;;;19.60;64.10;;;;;;5119877;27;44038;-61
2022/10/22 07:06:20;;;;;;;0.63;0.60;;;19.60;64.10;;;;;;5105433;27;43628;-61
2022/10/22 07:08:48;;;;;;;1.17;0.82;;;19.60;64.10;;;;;;5107847;27;43992;-61
2022/10/22 07:11:21;;;;;;;1.27;0.80;;;19.60;64.10;;;;;;5120001;27;43441;-61
2022/10/22 07:13:50;;;;;;;0.80;0.80;;;19.60;64.00;;;;;;5116862;27;43433;-61
2022/10/22 07:16:17;;;;;;;1.02;0.70;;;19.60;64.10;;;;;;5095642;27;43632;-61
2022/10/22 07:18:46;;;;;;;0.70;0.70;;;19.60;64.10;;;;;;5108843;27;44045;-61
2022/10/22 07:21:15;;;;;;;0.95;0.95;;;19.60;64.10;;;;;;5116562;27;43775;-61
2022/10/22 07:23:43;;;;;;;0.82;0.82;;;19.60;64.10;;;;;;5121200;27;43487;-61
2022/10/22 07:26:14;;;;;;;1.00;0.90;;;19.60;64.10;;;;;;5108065;27;43510;-61
2022/10/22 07:28:42;;;;;;;0.80;0.80;;;19.60;64.10;;;;;;5109453;27;43608;-61
2022/10/22 07:31:12;;;;;;;0.98;0.93;;;19.60;64.10;;;;;;5113322;27;43519;-61
2022/10/22 07:33:40;;;;;;;0.98;0.88;;;19.60;64.10;;;;;;5120929;27;43421;-61
2022/10/22 07:36:09;;;;;;;1.45;0.93;;;19.60;64.10;;;;;;5106567;27;43564;-61
2022/10/22 07:38:37;;;;;;;1.27;0.98;;;19.60;64.10;;;;;;5109892;27;44954;-61
2022/10/22 07:41:04;;;;;;;1.23;0.80;;;19.60;64.10;;;;;;5119346;27;43592;-60
2022/10/22 07:43:32;;;;;;;1.27;0.98;;;19.50;64.10;;;;;;5119677;27;43463;-61
2022/10/22 07:46:01;;;;;;;0.90;0.88;;;19.50;64.10;;;;;;5109245;27;43458;-61
2022/10/22 07:48:29;;;;;;;1.33;1.02;;;19.50;64.20;;;;;;5114938;27;44686;-61
2022/10/22 07:50:57;;;;;;;1.33;0.95;;;19.50;64.20;;;;;;5123302;27;43450;-60
2022/10/22 07:53:24;;;;;;;0.90;0.90;;;19.50;64.30;;;;;;5109658;27;43343;-61
2022/10/22 07:55:52;;;;;;;1.20;1.10;;;19.50;64.30;;;;;;5111293;27;43631;-60
2022/10/22 07:58:21;;;;;;;2.05;1.10;;;19.60;64.30;;;;;;5119084;27;44159;-59
2022/10/22 08:00:49;;;;;;;1.88;1.23;;;19.60;64.30;;;;;;5120464;27;43403;-61
2022/10/22 08:03:17;;;;;;;1.45;1.15;;;19.60;64.30;;;;;;5113328;27;43417;-60
2022/10/22 08:05:45;;;;;;;1.85;1.08;;;19.60;64.30;;;;;;5117480;27;43438;-61
2022/10/22 08:08:14;;;;;;;1.30;1.20;;;19.60;64.20;;;;;;5117745;27;44257;-61
2022/10/22 08:10:43;;;;;;;1.50;1.20;;;19.80;64.60;;;;;;5117918;27;43431;-60
2022/10/22 08:13:10;;;;;;;2.05;1.30;;;19.90;64.50;;;;;;5097847;27;43410;-60
2022/10/22 08:15:38;;;;;;;1.48;1.38;;;20.00;64.50;;;;;;5085698;27;43609;-61
2022/10/22 08:18:06;;;;;;;1.58;1.40;;;20.10;64.40;;;;;;5120895;27;44941;-60
2022/10/22 08:20:33;;;;;;;1.40;1.30;;;20.30;64.90;;;;;;5116565;27;43437;-60
2022/10/22 08:23:01;;;;;;;1.50;1.23;;;20.40;64.00;;;;;;5118091;27;43439;-60
2022/10/22 08:25:28;;;;;;;1.10;1.00;;;20.50;63.80;;;;;;5098861;27;43659;-60
2022/10/22 08:27:56;;;;;;;1.40;1.15;;;20.70;63.60;;;;;;5117953;27;44812;-59
2022/10/22 08:30:26;;;;;;;1.23;1.13;;;20.80;63.40;;;;;;5119138;27;43621;-60
2022/10/22 08:32:54;;;;;;;3.03;1.50;;;20.90;63.50;;;;;;5116955;27;43456;-62
2022/10/22 08:35:22;;;;;;;1.67;1.17;;;21.00;64.00;;;;;;5094500;27;43505;-61
2022/10/22 08:37:49;;;;;;;2.00;1.25;;;21.20;63.40;;;;;;5122456;27;45140;-62
2022/10/22 08:40:45;;;;;;;1.55;1.25;;;21.40;63.30;;;;;;5096507;27;43426;-59
2022/10/22 08:43:40;;;;;;;5.03;1.50;;;21.50;63.00;;;;;;5112715;27;43508;-61
2022/10/22 08:46:26;;;;;;;2.58;1.20;;;21.60;62.50;;;;;;5119901;27;43415;-61
2022/10/22 08:48:56;;;;;;;2.47;1.38;;;21.70;62.20;;;;;;5112696;27;43873;-62
2022/10/22 08:51:29;;;;;;;1.73;0.90;;;21.90;62.30;;;;;;5114809;27;43544;-61
2022/10/22 08:54:18;;;;;;;1.83;1.00;;;22.00;62.00;;;;;;5111939;27;43563;-62
2022/10/22 08:56:58;;;;;;;2.35;1.25;;;22.00;61.70;;;;;;5119621;27;43514;-60
2022/10/22 08:59:36;;;;;;;3.00;1.10;;;22.20;61.50;;;;;;5092403;27;45382;-61
2022/10/22 09:02:32;;;;;;;2.35;1.10;;;22.20;61.50;;;;;;5112607;27;43542;-62
2022/10/22 09:05:21;;;;;;;3.20;1.30;;;22.30;61.30;;;;;;5090528;27;43503;-61
2022/10/22 09:07:49;;;;;;;2.55;1.30;;;22.40;61.10;;;;;;5096310;27;43568;-60
2022/10/22 09:10:21;;;;;;;1.63;0.93;;;22.40;61.00;;;;;;5118961;27;44108;-61
2022/10/22 09:12:50;;;;;;;1.30;1.20;;;22.50;60.90;;;;;;5097229;27;43419;-63
2022/10/22 09:15:18;;;;;;;2.20;1.17;;;22.50;61.00;;;;;;5124213;27;43820;-61
2022/10/22 09:17:54;;;;;;;3.05;0.90;;;22.60;60.70;;;;;;5113943;27;43576;-61
2022/10/22 09:20:34;;;;;;;1.75;1.30;;;22.70;60.60;;;;;;5112648;27;43888;-61
2022/10/22 09:23:13;;;;;;;2.72;1.10;;;22.70;60.60;;;;;;5096101;27;43456;-60
2022/10/22 09:25:42;;;;;;;1.75;1.15;;;22.70;60.60;;;;;;5109858;27;43385;-60
2022/10/22 09:28:10;;;;;;;2.83;1.13;;;22.70;60.50;;;;;;5111527;27;43667;-60
2022/10/22 09:30:38;;;;;;;2.70;1.08;;;22.80;60.60;;;;;;5115286;27;43787;-60
2022/10/22 09:33:14;;;;;;;3.15;1.33;;;22.70;60.60;;;;;;5123332;27;43529;-60
2022/10/22 09:35:54;;;;;;;1.90;1.15;;;22.80;60.50;;;;;;5091290;27;43530;-61
2022/10/22 09:38:29;;;;;;;1.85;1.00;;;22.80;60.60;;;;;;5121221;27;43492;-62
2022/10/22 09:40:59;;;;;;;1.38;1.27;;;22.80;60.50;;;;;;5113621;27;43724;-60
2022/10/22 09:43:26;;;;;;;1.52;1.25;;;22.90;60.60;;;;;;5121322;27;44096;-61
2022/10/22 09:45:59;;;;;;;1.23;1.13;;;22.90;60.60;;;;;;5108123;27;43415;-59
2022/10/22 09:48:33;;;;;;;1.27;1.17;;;22.90;60.50;;;;;;5111127;27;43975;-60
2022/10/22 09:51:23;;;;;;;3.17;1.20;;;22.90;60.50;;;;;;5119979;27;44161;-60
2022/10/22 09:54:00;;;;;;;1.80;1.20;;;22.90;60.40;;;;;;5119603;27;43424;-60
2022/10/22 09:56:34;;;;;;;1.73;1.05;;;22.90;60.50;;;;;;5108628;27;43412;-60
2022/10/22 09:59:02;;;;;;;2.45;1.20;;;22.90;60.40;;;;;;5119400;27;43954;-61
2022/10/22 10:01:37;;;;;;;2.30;1.23;;;22.90;60.50;;;;;;5117686;27;43937;-60
2022/10/22 10:04:07;;;;;;;1.90;1.25;;;22.90;60.50;;;;;;5114012;27;43499;-61
2022/10/22 10:06:39;;;;;;;1.63;1.27;;;22.90;60.50;;;;;;5095131;27;43552;-61
2022/10/22 10:09:18;;;;;;;3.00;1.15;;;22.90;60.50;;;;;;5119757;27;43485;-60
2022/10/22 10:11:56;;;;;;;1.92;1.10;;;22.90;60.60;;;;;;5117078;27;43705;-61
2022/10/22 10:15:01;;;;;;;1.83;1.08;;;22.90;60.70;;;;;;5100002;27;43597;-61
2022/10/22 10:17:45;;;;;;;3.30;1.30;;;22.90;60.70;;;;;;5116150;27;43439;-60
2022/10/22 10:20:28;;;;;;;4.38;1.38;;;22.90;60.80;;;;;;5082817;27;43578;-60
2022/10/22 10:23:24;;;;;;;2.42;1.25;;;22.80;60.80;;;;;;5117712;27;43917;-60
2022/10/22 10:26:10;;;;;;;1.67;1.45;;;22.90;60.90;;;;;;5089594;27;44887;-60
2022/10/22 10:28:55;;;;;;;3.40;1.50;;;22.90;61.00;;;;;;5115718;27;43583;-61
2022/10/22 10:31:51;;;;;;;1.58;1.33;;;22.90;61.00;;;;;;5114541;27;43488;-60
2022/10/22 10:34:18;;;;;;;2.05;1.35;;;22.90;61.00;;;;;;5120030;27;43919;-60
2022/10/22 10:37:22;;;;;;;1.38;1.20;;;22.90;61.00;;;;;;5114602;27;43634;-60
2022/10/22 10:39:58;;;;;;;2.45;1.10;;;22.90;61.00;;;;;;5083257;27;43516;-61
2022/10/22 10:42:31;;;;;;;2.58;1.40;;;22.90;61.10;;;;;;5116093;27;43414;-60
2022/10/22 10:45:04;;;;;;;3.60;1.42;;;22.90;61.10;;;;;;5115892;27;43944;-60
2022/10/22 10:47:53;;;;;;;2.42;1.30;;;22.90;61.10;;;;;;5110171;27;43499;-61
2022/10/22 10:50:38;;;;;;;1.73;1.42;;;22.90;61.10;;;;;;5107829;27;43492;-61
2022/10/22 10:53:30;;;;;;;2.88;1.73;;;22.80;61.10;;;;;;5120039;27;43414;-60
2022/10/22 10:56:25;;;;;;;3.35;1.23;;;22.80;61.10;;;;;;5116371;27;43696;-60
2022/10/22 10:59:10;;;;;;;2.03;1.40;;;22.80;61.20;;;;;;5104388;27;44115;-60
2022/10/22 11:02:09;;;;;;;2.85;1.60;;;22.80;61.30;;;;;;5114347;27;43518;-60
2022/10/22 11:05:14;;;;;;;1.90;1.60;;;22.80;61.30;;;;;;5093570;27;43563;-60
2022/10/22 11:07:48;;;;;;;2.45;1.60;;;22.80;61.40;;;;;;5108667;27;43778;-60
2022/10/22 11:10:27;;;;;;;2.10;1.35;;;22.80;61.40;;;;;;5112210;27;43920;-60
2022/10/22 11:13:03;;;;;;;2.08;1.58;;;22.80;61.40;;;;;;5116006;27;43411;-59
2022/10/22 11:15:36;;;;;;;3.13;1.33;;;22.80;61.40;;;;;;5118244;27;43458;-60
2022/10/22 11:18:27;;;;;;;2.70;1.50;;;22.80;61.50;;;;;;5095401;27;43934;-60
2022/10/22 11:21:00;;;;;;;;;;;22.70;61.40;;;;;;5110572;27;43404;-60
2022/10/22 11:23:53;;;;;;;3.10;1.45;;;22.70;61.50;;;;;;5123465;27;43477;-59
2022/10/22 11:26:50;;;;;;;1.75;1.30;;;22.70;61.60;;;;;;5109327;27;43427;-60
2022/10/22 11:29:33;;;;;;;3.28;1.30;;;22.70;61.60;;;;;;5097486;27;43920;-60
2022/10/22 11:32:02;;;;;;;2.00;1.40;;;22.70;61.60;;;;;;5120600;27;43462;-60
2022/10/22 11:34:42;;;;;;;2.08;1.48;;;22.70;61.70;;;;;;5122200;27;43459;-60
2022/10/22 11:37:12;;;;;;;2.55;1.50;;;22.60;61.60;;;;;;5116445;27;43426;-60
2022/10/22 11:39:50;;;;;;;2.50;1.40;;;22.70;61.70;;;;;;5097220;27;43760;-61
2022/10/22 11:42:22;;;;;;;1.67;1.35;;;22.70;61.80;;;;;;5121169;27;43479;-60
2022/10/22 11:45:02;;;;;;;2.10;1.40;;;22.70;61.80;;;;;;5124131;27;43403;-60
2022/10/22 11:47:50;;;;;;;2.03;1.75;;;22.60;61.70;;;;;;5112369;27;43510;-60
2022/10/22 11:50:24;;;;;;;2.20;1.25;;;22.60;61.80;;;;;;5114538;27;43661;-60
2022/10/22 11:53:02;;;;;;;2.42;1.40;;;22.60;61.80;;;;;;5123084;27;43391;-60
2022/10/22 11:55:50;;;;;;;1.73;1.30;;;22.60;61.90;;;;;;5120885;27;43873;-60
2022/10/22 11:58:32;;;;;;;3.17;1.50;;;22.60;62.00;;;;;;5115589;27;43555;-60
2022/10/22 12:01:08;;;;;;;3.20;1.60;;;22.50;62.00;;;;;;5117481;27;43778;-59
2022/10/22 12:03:45;;;;;;;2.88;1.42;;;22.50;62.10;;;;;;5119254;27;43857;-60
2022/10/22 12:06:14;;;;;;;2.40;1.40;;;22.40;62.10;;;;;;5119556;27;43487;-60
2022/10/22 12:08:44;;;;;;;2.45;1.60;;;22.40;62.20;;;;;;5103242;27;43537;-60
2022/10/22 12:11:11;;;;;;;2.10;1.42;;;22.40;62.20;;;;;;5113698;27;43741;-60
2022/10/22 12:13:57;;;;;;;3.55;1.50;;;22.40;62.20;;;;;;5114537;27;43487;-59
2022/10/22 12:16:36;;;;;;;2.83;1.52;;;22.40;62.40;;;;;;5118433;27;43456;-59
2022/10/22 12:19:22;;;;;;;2.38;1.42;;;22.40;62.50;;;;;;5118235;27;43522;-59
2022/10/22 12:21:55;;;;;;;2.45;1.40;;;22.40;62.40;;;;;;5115996;27;44172;-59
2022/10/22 12:24:25;;;;;;;2.00;1.50;;;22.40;62.50;;;;;;5115534;27;43478;-59
2022/10/22 12:26:52;;;;;;;2.60;1.73;;;22.30;62.50;;;;;;5094933;27;43572;-60
2022/10/22 12:29:25;;;;;;;2.80;1.58;;;22.30;62.60;;;;;;5113650;27;43477;-60
2022/10/22 12:31:53;;;;;;;2.50;1.50;;;22.30;62.70;;;;;;5119836;27;43757;-59
2022/10/22 12:34:23;;;;;;;3.20;1.70;;;22.30;62.70;;;;;;5116417;27;43434;-60
2022/10/22 12:36:52;;;;;;;3.10;1.50;;;22.30;62.70;;;;;;5115306;27;43448;-59
2022/10/22 12:39:26;;;;;;;2.17;1.40;;;22.30;62.80;;;;;;5118726;27;43384;-60
2022/10/22 12:41:54;;;;;;;3.15;1.77;;;22.20;62.70;;;;;;5113831;27;44045;-59
2022/10/22 12:44:22;;;;;;;2.67;1.48;;;22.30;62.80;;;;;;5092828;27;43703;-59
2022/10/22 12:46:50;;;;;;;2.80;1.60;;;22.20;62.80;;;;;;5113120;27;43817;-59
2022/10/22 12:49:35;;;;;;;1.98;1.30;;;22.20;62.80;;;;;;5117362;27;43582;-59
2022/10/22 12:52:06;;;;;;;1.83;1.30;;;22.20;62.80;;;;;;5115218;27;44151;-59
2022/10/22 12:54:39;;;;;;;1.80;1.40;;;22.20;62.80;;;;;;5115201;27;43585;-60
2022/10/22 12:57:14;;;;;;;3.33;1.50;;;22.20;63.00;;;;;;5116265;27;43501;-60
2022/10/22 12:59:46;;;;;;;2.05;1.35;;;22.10;62.90;;;;;;5122846;27;43798;-60
2022/10/22 13:02:27;;;;;;;1.70;1.40;;;22.20;63.00;;;;;;5119134;27;44056;-60
2022/10/22 13:05:15;;;;;;;3.15;1.20;;;22.10;63.00;;;;;;5099299;27;43527;-60
2022/10/22 13:07:47;;;;;;;2.42;1.60;;;22.10;63.00;;;;;;5116063;27;43472;-60
2022/10/22 13:10:19;;;;;;;2.80;1.40;;;22.10;63.10;;;;;;5115710;27;43947;-60
2022/10/22 13:12:53;;;;;;;1.60;1.13;;;22.10;63.10;;;;;;5114332;27;43901;-59
2022/10/22 13:15:27;;;;;;;1.75;1.45;;;22.10;63.10;;;;;;5123677;27;43419;-60